sensor_id;sensor_type;location;lat;lon;timestamp;pressure;altitude;pressure_sealevel;temperature;humidity
47260;BME280;32999;52.412;4.890;2023-04-05T00:04:45;102611.38;;;4.60;100.00
47260;BME280;32999;52.412;4.890;2023-04-05T00:10:28;102605.84;;;4.51;100.00
47260;BME280;32999;52.412;4.890;2023-04-05T00:33:07;102584.13;;;4.20;100.00
47260;BME280;32999;52.412;4.890;2023-04-05T03:22:25;102444.75;;;2.73;100.00
47260;BME280;32999;52.412;4.890;2023-04-05T03:27:47;102440.22;;;2.76;100.00
47260;BME280;32999;52.412;4.890;2023-04-05T03:32:57;102440.81;;;2.66;100.00
47260;BME280;32999;52.412;4.890;2023-04-05T03:38:06;102442.72;;;2.64;100.00
47260;BME280;32999;52.412;4.890;2023-04-05T03:43:11;102441.38;;;2.57;100.00
47260;BME280;32999;52.412;4.890;2023-04-05T03:54:03;102440.28;;;2.47;100.00
47260;BME280;32999;52.412;4.890;2023-04-05T03:59:05;102462.50;;;2.43;100.00
47260;BME280;32999;52.412;4.890;2023-04-05T04:04:13;102447.81;;;2.39;100.00
47260;BME280;32999;52.412;4.890;2023-04-05T04:09:19;102439.31;;;2.34;100.00
47260;BME280;32999;52.412;4.890;2023-04-05T04:14:22;102445.63;;;2.31;100.00
47260;BME280;32999;52.412;4.890;2023-04-05T04:19:27;102448.94;;;2.21;100.00
47260;BME280;32999;52.412;4.890;2023-04-05T04:24:31;102341.34;;;1.69;100.00
47260;BME280;32999;52.412;4.890;2023-04-05T04:29:35;102441.22;;;2.18;100.00
47260;BME280;32999;52.412;4.890;2023-04-05T04:34:44;102426.31;;;2.17;100.00
47260;BME280;32999;52.412;4.890;2023-04-05T04:39:48;102427.44;;;2.13;100.00
47260;BME280;32999;52.412;4.890;2023-04-05T04:44:54;102432.81;;;2.11;100.00
47260;BME280;32999;52.412;4.890;2023-04-05T04:50:36;102437.41;;;2.08;100.00
47260;BME280;32999;52.412;4.890;2023-04-05T04:56:07;102409.72;;;1.86;100.00
47260;BME280;32999;52.412;4.890;2023-04-05T05:01:15;102430.91;;;1.99;100.00
47260;BME280;32999;52.412;4.890;2023-04-05T05:06:18;102367.31;;;1.61;100.00
47260;BME280;32999;52.412;4.890;2023-04-05T05:11:24;102431.47;;;2.04;100.00
47260;BME280;32999;52.412;4.890;2023-04-05T05:16:28;102426.97;;;2.06;100.00
47260;BME280;32999;52.412;4.890;2023-04-05T05:21:30;102420.56;;;2.10;100.00
47260;BME280;32999;52.412;4.890;2023-04-05T05:26:33;102305.63;;;1.35;100.00
47260;BME280;32999;52.412;4.890;2023-04-05T05:31:37;102424.72;;;2.14;100.00
47260;BME280;32999;52.412;4.890;2023-04-05T05:36:47;102422.84;;;2.16;100.00
47260;BME280;32999;52.412;4.890;2023-04-05T05:41:54;102395.50;;;2.03;100.00
47260;BME280;32999;52.412;4.890;2023-04-05T05:47:20;102428.56;;;2.23;100.00
47260;BME280;32999;52.412;4.890;2023-04-05T07:16:51;102418.03;;;6.93;100.00
47260;BME280;32999;52.412;4.890;2023-04-05T07:22:08;102416.09;;;7.38;100.00
47260;BME280;32999;52.412;4.890;2023-04-05T07:38:52;102392.97;;;9.02;100.00
47260;BME280;32999;52.412;4.890;2023-04-05T07:49:39;102394.53;;;9.52;100.00
47260;BME280;32999;52.412;4.890;2023-04-05T07:54:51;102387.78;;;10.24;100.00
47260;BME280;32999;52.412;4.890;2023-04-05T07:59:54;102404.44;;;10.45;99.39
47260;BME280;32999;52.412;4.890;2023-04-05T08:04:56;102385.44;;;10.11;88.61
47260;BME280;32999;52.412;4.890;2023-04-05T08:10:00;102388.31;;;11.10;90.96
47260;BME280;32999;52.412;4.890;2023-04-05T08:15:06;102338.69;;;12.03;80.24
47260;BME280;32999;52.412;4.890;2023-04-05T08:20:12;102330.66;;;12.45;69.13
47260;BME280;32999;52.412;4.890;2023-04-05T08:25:15;102339.75;;;12.52;67.41
47260;BME280;32999;52.412;4.890;2023-04-05T08:30:18;102327.25;;;13.90;62.81
47260;BME280;32999;52.412;4.890;2023-04-05T08:35:20;102268.50;;;14.26;59.04
47260;BME280;32999;52.412;4.890;2023-04-05T08:40:38;102306.72;;;14.53;57.59
47260;BME280;32999;52.412;4.890;2023-04-05T08:45:45;102321.34;;;14.81;56.73
47260;BME280;32999;52.412;4.890;2023-04-05T08:50:52;102250.94;;;15.82;48.96
47260;BME280;32999;52.412;4.890;2023-04-05T08:55:56;102223.00;;;16.41;47.72
47260;BME280;32999;52.412;4.890;2023-04-05T09:01:01;102264.44;;;16.69;46.04
47260;BME280;32999;52.412;4.890;2023-04-05T09:06:04;102227.50;;;17.47;42.79
47260;BME280;32999;52.412;4.890;2023-04-05T09:11:10;102190.44;;;17.68;39.86
47260;BME280;32999;52.412;4.890;2023-04-05T09:16:13;102204.66;;;18.58;40.06
47260;BME280;32999;52.412;4.890;2023-04-05T09:21:15;102214.97;;;18.15;39.31
47260;BME280;32999;52.412;4.890;2023-04-05T09:26:23;102118.66;;;18.60;37.34
47260;BME280;32999;52.412;4.890;2023-04-05T09:31:35;102122.66;;;19.68;34.90
47260;BME280;32999;52.412;4.890;2023-04-05T09:42:19;102133.16;;;19.51;33.69
47260;BME280;32999;52.412;4.890;2023-04-05T09:47:26;102186.84;;;18.02;36.92
47260;BME280;32999;52.412;4.890;2023-04-05T09:52:31;102136.56;;;18.48;33.48
47260;BME280;32999;52.412;4.890;2023-04-05T09:57:36;102152.50;;;20.06;35.34
47260;BME280;32999;52.412;4.890;2023-04-05T10:02:39;102157.09;;;20.05;34.93
47260;BME280;32999;52.412;4.890;2023-04-05T10:07:41;102078.22;;;20.57;31.65
47260;BME280;32999;52.412;4.890;2023-04-05T10:12:46;102106.97;;;20.71;31.95
47260;BME280;32999;52.412;4.890;2023-04-05T10:18:02;102114.41;;;21.25;32.49
47260;BME280;32999;52.412;4.890;2023-04-05T10:23:06;102109.63;;;21.39;31.97
47260;BME280;32999;52.412;4.890;2023-04-05T10:28:14;102045.09;;;22.06;28.78
47260;BME280;32999;52.412;4.890;2023-04-05T10:33:20;102086.59;;;21.42;29.61
47260;BME280;32999;52.412;4.890;2023-04-05T10:38:24;102018.78;;;22.00;29.87
47260;BME280;32999;52.412;4.890;2023-04-05T10:43:27;102091.81;;;21.25;31.33
47260;BME280;32999;52.412;4.890;2023-04-05T10:48:37;102107.00;;;21.81;31.95
47260;BME280;32999;52.412;4.890;2023-04-05T10:53:41;102053.81;;;21.96;29.22
47260;BME280;32999;52.412;4.890;2023-04-05T10:58:46;101942.81;;;20.60;29.74
47260;BME280;32999;52.412;4.890;2023-04-05T11:03:48;102012.88;;;22.03;28.13
47260;BME280;32999;52.412;4.890;2023-04-05T11:08:53;102054.59;;;22.15;29.68
47260;BME280;32999;52.412;4.890;2023-04-05T11:13:57;102029.47;;;23.18;29.20
47260;BME280;32999;52.412;4.890;2023-04-05T11:18:58;102053.19;;;22.24;28.69
47260;BME280;32999;52.412;4.890;2023-04-05T11:24:07;102017.81;;;21.53;28.15
47260;BME280;32999;52.412;4.890;2023-04-05T11:29:14;101917.53;;;21.68;28.02
47260;BME280;32999;52.412;4.890;2023-04-05T11:34:22;101948.88;;;22.47;28.96
47260;BME280;32999;52.412;4.890;2023-04-05T11:39:25;101993.84;;;22.61;27.55
47260;BME280;32999;52.412;4.890;2023-04-05T11:44:29;102022.94;;;23.19;28.77
47260;BME280;32999;52.412;4.890;2023-04-05T11:49:39;101921.56;;;22.70;27.07
47260;BME280;32999;52.412;4.890;2023-04-05T11:54:42;101994.47;;;22.52;27.49
47260;BME280;32999;52.412;4.890;2023-04-05T11:59:50;101988.56;;;21.90;27.98
47260;BME280;32999;52.412;4.890;2023-04-05T12:04:53;101939.31;;;20.10;27.24
47260;BME280;32999;52.412;4.890;2023-04-05T12:10:02;101959.25;;;21.02;27.96
47260;BME280;32999;52.412;4.890;2023-04-05T12:15:06;101986.84;;;21.35;26.46
47260;BME280;32999;52.412;4.890;2023-04-05T12:20:10;101979.81;;;21.46;26.54
47260;BME280;32999;52.412;4.890;2023-04-05T12:25:13;101964.25;;;20.87;27.34
47260;BME280;32999;52.412;4.890;2023-04-05T12:30:18;101939.16;;;21.51;25.93
47260;BME280;32999;52.412;4.890;2023-04-05T12:35:22;101971.34;;;20.69;27.73
47260;BME280;32999;52.412;4.890;2023-04-05T12:40:26;101932.97;;;20.96;28.95
47260;BME280;32999;52.412;4.890;2023-04-05T12:45:32;101995.84;;;21.36;28.80
47260;BME280;32999;52.412;4.890;2023-04-05T12:50:42;101963.03;;;22.72;27.75
47260;BME280;32999;52.412;4.890;2023-04-05T12:55:47;101969.94;;;21.15;27.88
47260;BME280;32999;52.412;4.890;2023-04-05T13:00:51;102008.59;;;20.44;29.65
47260;BME280;32999;52.412;4.890;2023-04-05T13:05:52;101884.88;;;19.55;28.81
47260;BME280;32999;52.412;4.890;2023-04-05T13:10:54;101912.56;;;20.75;28.68
47260;BME280;32999;52.412;4.890;2023-04-05T13:15:57;101959.25;;;21.50;28.42
47260;BME280;32999;52.412;4.890;2023-04-05T13:20:59;101952.13;;;21.91;28.64
47260;BME280;32999;52.412;4.890;2023-04-05T13:26:07;101847.34;;;20.75;28.81
47260;BME280;32999;52.412;4.890;2023-04-05T13:31:10;101937.09;;;21.17;27.58
47260;BME280;32999;52.412;4.890;2023-04-05T13:36:12;101959.69;;;20.19;29.84
47260;BME280;32999;52.412;4.890;2023-04-05T13:41:13;101917.03;;;19.14;31.31
47260;BME280;32999;52.412;4.890;2023-04-05T13:46:17;101985.31;;;16.08;33.45
47260;BME280;32999;52.412;4.890;2023-04-05T13:51:18;101977.75;;;15.39;35.47
47260;BME280;32999;52.412;4.890;2023-04-05T13:56:20;101989.50;;;15.31;36.44
47260;BME280;32999;52.412;4.890;2023-04-05T14:01:23;102063.28;;;15.52;36.33
47260;BME280;32999;52.412;4.890;2023-04-05T14:06:25;102074.72;;;15.39;36.25
47260;BME280;32999;52.412;4.890;2023-04-05T14:11:27;102087.25;;;15.76;37.35
47260;BME280;32999;52.412;4.890;2023-04-05T14:16:30;101988.94;;;15.21;37.57
47260;BME280;32999;52.412;4.890;2023-04-05T14:21:32;101945.25;;;15.05;36.80
47260;BME280;32999;52.412;4.890;2023-04-05T14:26:36;102081.78;;;15.91;37.77
47260;BME280;32999;52.412;4.890;2023-04-05T14:31:39;102018.47;;;15.65;36.12
47260;BME280;32999;52.412;4.890;2023-04-05T14:36:41;101920.00;;;15.06;36.55
47260;BME280;32999;52.412;4.890;2023-04-05T14:41:43;101917.25;;;14.84;35.71
47260;BME280;32999;52.412;4.890;2023-04-05T14:46:50;101988.59;;;14.51;37.91
47260;BME280;32999;52.412;4.890;2023-04-05T14:51:52;102061.28;;;15.10;37.90
47260;BME280;32999;52.412;4.890;2023-04-05T14:56:54;102051.06;;;15.20;39.02
47260;BME280;32999;52.412;4.890;2023-04-05T15:01:57;102036.22;;;15.24;38.08
47260;BME280;32999;52.412;4.890;2023-04-05T15:06:59;102014.31;;;14.97;38.04
47260;BME280;32999;52.412;4.890;2023-04-05T15:12:01;102026.91;;;15.12;38.59
47260;BME280;32999;52.412;4.890;2023-04-05T15:17:04;101941.84;;;14.81;36.71
47260;BME280;32999;52.412;4.890;2023-04-05T15:22:06;101982.09;;;14.89;37.93
47260;BME280;32999;52.412;4.890;2023-04-05T15:27:09;102013.94;;;14.86;38.25
47260;BME280;32999;52.412;4.890;2023-04-05T15:32:12;101952.50;;;14.60;38.65
47260;BME280;32999;52.412;4.890;2023-04-05T15:37:14;101992.41;;;15.01;37.84
47260;BME280;32999;52.412;4.890;2023-04-05T15:42:16;101984.16;;;15.02;38.76
47260;BME280;32999;52.412;4.890;2023-04-05T15:47:19;101978.56;;;14.89;38.39
47260;BME280;32999;52.412;4.890;2023-04-05T15:52:21;101917.84;;;14.50;38.49
47260;BME280;32999;52.412;4.890;2023-04-05T15:57:22;101974.16;;;14.81;38.21
47260;BME280;32999;52.412;4.890;2023-04-05T16:02:26;101991.13;;;14.82;39.76
47260;BME280;32999;52.412;4.890;2023-04-05T16:07:30;102020.44;;;14.39;43.90
47260;BME280;32999;52.412;4.890;2023-04-05T16:12:32;101909.00;;;13.89;41.50
47260;BME280;32999;52.412;4.890;2023-04-05T16:17:35;101904.47;;;13.90;40.87
47260;BME280;32999;52.412;4.890;2023-04-05T16:22:37;102034.72;;;14.02;45.29
47260;BME280;32999;52.412;4.890;2023-04-05T16:27:39;102031.44;;;13.38;50.76
47260;BME280;32999;52.412;4.890;2023-04-05T16:32:44;102016.66;;;13.03;57.16
47260;BME280;32999;52.412;4.890;2023-04-05T16:37:46;101938.56;;;12.35;63.17
47260;BME280;32999;52.412;4.890;2023-04-05T16:42:47;102003.88;;;12.58;67.62
47260;BME280;32999;52.412;4.890;2023-04-05T16:47:51;102004.75;;;11.77;74.35
47260;BME280;32999;52.412;4.890;2023-04-05T16:58:29;101864.72;;;10.86;79.09
47260;BME280;32999;52.412;4.890;2023-04-05T17:03:44;101914.28;;;11.39;78.83
47260;BME280;32999;52.412;4.890;2023-04-05T17:08:49;101903.44;;;11.32;72.01
47260;BME280;32999;52.412;4.890;2023-04-05T17:14:02;101867.59;;;11.17;74.29
47260;BME280;32999;52.412;4.890;2023-04-05T17:19:21;101875.16;;;11.30;75.51
47260;BME280;32999;52.412;4.890;2023-04-05T17:36:28;101841.41;;;10.70;85.16
47260;BME280;32999;52.412;4.890;2023-04-05T17:41:34;101853.16;;;10.77;89.77
47260;BME280;32999;52.412;4.890;2023-04-05T18:08:16;101858.94;;;10.22;89.18
47260;BME280;32999;52.412;4.890;2023-04-05T18:18:32;101960.53;;;10.65;90.19
47260;BME280;32999;52.412;4.890;2023-04-05T18:28:48;102026.78;;;10.79;90.37
47260;BME280;32999;52.412;4.890;2023-04-05T18:33:57;101900.50;;;9.99;92.22
47260;BME280;32999;52.412;4.890;2023-04-05T18:39:00;102011.75;;;10.52;95.09
47260;BME280;32999;52.412;4.890;2023-04-05T18:44:08;101923.44;;;9.84;99.28
47260;BME280;32999;52.412;4.890;2023-04-05T18:49:10;101957.19;;;9.93;100.00
47260;BME280;32999;52.412;4.890;2023-04-05T18:54:15;102040.81;;;10.11;100.00
47260;BME280;32999;52.412;4.890;2023-04-05T18:59:20;101870.47;;;9.00;100.00
47260;BME280;32999;52.412;4.890;2023-04-05T19:04:28;101908.34;;;9.04;100.00
47260;BME280;32999;52.412;4.890;2023-04-05T19:10:10;102028.31;;;9.76;100.00
47260;BME280;32999;52.412;4.890;2023-04-05T19:15:23;101880.81;;;8.58;100.00
47260;BME280;32999;52.412;4.890;2023-04-05T19:20:31;101893.16;;;8.59;100.00
47260;BME280;32999;52.412;4.890;2023-04-05T19:25:46;102027.53;;;9.21;100.00
47260;BME280;32999;52.412;4.890;2023-04-05T19:30:59;101957.88;;;8.69;100.00
47260;BME280;32999;52.412;4.890;2023-04-05T19:37:01;101877.06;;;8.04;100.00
47260;BME280;32999;52.412;4.890;2023-04-05T19:42:41;102015.88;;;8.95;100.00
47260;BME280;32999;52.412;4.890;2023-04-05T19:48:01;101877.06;;;8.04;100.00
47260;BME280;32999;52.412;4.890;2023-04-05T19:53:57;102005.28;;;8.75;100.00
47260;BME280;32999;52.412;4.890;2023-04-05T19:59:44;102000.28;;;8.63;100.00
47260;BME280;32999;52.412;4.890;2023-04-05T20:47:51;101959.19;;;7.32;100.00
47260;BME280;32999;52.412;4.890;2023-04-05T20:58:47;101941.13;;;7.16;100.00
47260;BME280;32999;52.412;4.890;2023-04-05T21:16:16;101935.84;;;6.86;100.00
47260;BME280;32999;52.412;4.890;2023-04-05T21:34:01;101925.84;;;6.59;100.00
47260;BME280;32999;52.412;4.890;2023-04-05T21:39:06;101914.19;;;6.50;100.00
47260;BME280;32999;52.412;4.890;2023-04-05T21:44:15;101913.88;;;6.43;100.00
47260;BME280;32999;52.412;4.890;2023-04-05T21:49:46;101811.44;;;5.80;100.00
